Time,TemperatureF,DewpointF,PressureIn,WindDirection,WindDirectionDegrees,WindSpeedMPH,WindSpeedGustMPH,Humidity,HourlyPrecipIn,Conditions,Clouds,dailyrainin,SolarRadiationWatts/m^2,SoftwareType,DateUTC
2013-02-11 00:00:00,40.8,25.9,29.81,SE,137,5.3,10.4,55,0.00,OVC,BKN,0.04,0.0,WeatherDisplay:10.37,2013-02-11 05:00:00,
2013-02-11 00:05:00,40.6,25.3,29.80,SSE,164,4.9,8.1,54,0.00,RA,BKN,0.00,0.0,WeatherDisplay:10.37,2013-02-11 05:05:00,
2013-02-11 00:10:00,40.6,25.7,29.80,SSE,159,4.2,6.9,55,0.00,OVC,BKN,0.00,0.0,WeatherDisplay:10.37,2013-02-11 05:10:00,
2013-02-11 00:15:00,40.6,26.2,29.79,SE,125,4.2,6.8,56,0.00,OVC,BKN,0.00,0.0,WeatherDisplay:10.37,2013-02-11 05:15:00,
2013-02-11 00:20:00,40.8,25.4,29.78,ESE,115,6.1,8.2,54,0.00,-RA,BKN,0.00,0.0,WeatherDisplay:10.37,2013-02-11 05:20:00,
2013-02-11 00:25:00,41.0,26.1,29.78,South,177,4.4,6.9,55,0.00,-RA,BKN,0.00,0.0,WeatherDisplay:10.37,2013-02-11 05:25:00,
2013-02-11 00:30:00,41.2,26.7,29.78,South,176,4.9,6.9,56,0.00,-RA,BKN,0.00,0.0,WeatherDisplay:10.37,2013-02-11 05:30:00,
2013-02-11 00:35:00,41.2,28.7,29.78,SSE,167,4.7,6.9,61,0.00,-RA,BKN,0.00,0.0,WeatherDisplay:10.37,2013-02-11 05:35:00,
2013-02-11 00:40:00,41.7,28.4,29.78,SE,137,6.5,9.4,59,0.00,-RA,BKN,0.00,0.0,WeatherDisplay:10.37,2013-02-11 05:40:00,
2013-02-11 00:45:00,42.1,27.9,29.76,SSE,154,6.8,10.4,57,0.00,-RA,BKN,0.00,0.0,WeatherDisplay:10.37,2013-02-11 05:45:00,
2013-02-11 00:50:00,42.1,26.6,29.77,SE,146,10.4,12.7,54,0.00,OVC,BKN,0.00,0.0,WeatherDisplay:10.37,2013-02-11 05:50:00,
2013-02-11 00:55:00,41.5,25.7,29.78,SSE,150,9.3,16.1,53,0.00,OVC,BKN,0.00,0.0,WeatherDisplay:10.37,2013-02-11 05:55:00,
2013-02-11 01:00:00,41.4,25.0,29.78,South,171,10.3,11.5,52,0.00,OVC,BKN,0.00,0.0,WeatherDisplay:10.37,2013-02-11 06:00:00,
2013-02-11 01:05:00,41.4,25.0,29.77,SSE,154,9.4,15.0,52,0.00,OVC,BKN,0.00,0.0,WeatherDisplay:10.37,2013-02-11 06:05:00,
2013-02-11 01:10:00,41.2,24.4,29.76,SE,128,11.4,16.1,51,0.00,OVC,BKN,0.00,0.0,WeatherDisplay:10.37,2013-02-11 06:10:00,
2013-02-11 01:15:00,41.2,24.4,29.76,ESE,104,9.5,13.8,51,0.00,OVC,BKN,0.00,0.0,WeatherDisplay:10.37,2013-02-11 06:15:00,
2013-02-11 01:20:00,41.2,24.4,29.74,East,89,8.3,13.5,51,0.00,OVC,BKN,0.00,0.0,WeatherDisplay:10.37,2013-02-11 06:20:00,
2013-02-11 01:25:00,40.8,24.1,29.74,SSE,164,10.0,14.3,51,0.00,OVC,BKN,0.00,0.0,WeatherDisplay:10.37,2013-02-11 06:25:00,
2013-02-11 01:30:00,40.6,23.4,29.74,SSE,155,12.6,18.4,50,0.00,OVC,BKN,0.00,0.0,WeatherDisplay:10.37,2013-02-11 06:30:00,
2013-02-11 01:35:00,40.8,23.6,29.74,SE,137,10.8,15.0,50,0.00,OVC,BKN,0.00,0.0,WeatherDisplay:10.37,2013-02-11 06:35:00,
2013-02-11 01:40:00,40.8,23.6,29.73,South,186,11.3,17.3,50,0.00,OVC,BKN,0.00,0.0,WeatherDisplay:10.37,2013-02-11 06:40:00,
2013-02-11 01:45:00,40.6,23.4,29.73,SE,132,9.1,13.8,50,0.00,OVC,BKN,0.00,0.0,WeatherDisplay:10.37,2013-02-11 06:45:00,
2013-02-11 01:50:00,40.8,24.5,29.73,South,174,6.4,10.4,52,0.00,OVC,BKN,0.00,0.0,WeatherDisplay:10.37,2013-02-11 06:50:00,
2013-02-11 01:55:00,40.6,23.9,29.73,SE,132,7.3,15.0,51,0.00,OVC,BKN,0.00,0.0,WeatherDisplay:10.37,2013-02-11 06:55:00,
2013-02-11 02:00:00,40.6,23.9,29.73,SSE,148,6.4,12.7,51,0.00,OVC,BKN,0.00,0.0,WeatherDisplay:10.37,2013-02-11 07:00:00,
2013-02-11 02:05:00,40.6,23.9,29.72,SE,128,10.1,15.6,51,0.00,OVC,BKN,0.00,0.0,WeatherDisplay:10.37,2013-02-11 07:05:00,
2013-02-11 02:10:00,40.6,23.9,29.72,ESE,122,10.9,13.8,51,0.00,OVC,BKN,0.00,0.0,WeatherDisplay:10.37,2013-02-11 07:10:00,
2013-02-11 02:15:00,40.6,23.9,29.72,SSE,150,10.3,18.4,51,0.00,OVC,BKN,0.00,0.0,WeatherDisplay:10.37,2013-02-11 07:15:00,
2013-02-11 02:20:00,40.8,24.5,29.72,SSE,154,8.9,14.8,52,0.00,OVC,BKN,0.00,0.0,WeatherDisplay:10.37,2013-02-11 07:20:00,
2013-02-11 02:25:00,40.8,24.1,29.72,SSE,151,7.7,11.2,51,0.00,OVC,BKN,0.00,0.0,WeatherDisplay:10.37,2013-02-11 07:25:00,
2013-02-11 02:30:00,40.8,24.5,29.72,SE,140,7.8,10.4,52,0.00,OVC,BKN,0.00,0.0,WeatherDisplay:10.37,2013-02-11 07:30:00,
2013-02-11 02:35:00,41.0,24.7,29.72,SE,128,8.1,12.9,52,0.00,OVC,BKN,0.00,0.0,WeatherDisplay:10.37,2013-02-11 07:35:00,
2013-02-11 02:40:00,40.8,24.5,29.72,South,183,7.8,11.5,52,0.00,OVC,BKN,0.00,0.0,WeatherDisplay:10.37,2013-02-11 07:40:00,
2013-02-11 02:45:00,40.8,25.0,29.71,SE,130,9.5,15.0,53,0.00,OVC,BKN,0.00,0.0,WeatherDisplay:10.37,2013-02-11 07:45:00,
2013-02-11 02:50:00,40.8,25.4,29.71,South,181,6.1,10.4,54,0.00,OVC,BKN,0.00,0.0,WeatherDisplay:10.37,2013-02-11 07:50:00,
2013-02-11 02:55:00,41.2,25.3,29.71,South,169,7.1,15.0,53,0.00,OVC,BKN,0.00,0.0,WeatherDisplay:10.37,2013-02-11 07:55:00,
2013-02-11 03:00:00,41.0,26.1,29.70,South,180,9.0,13.7,55,0.00,OVC,BKN,0.00,0.0,WeatherDisplay:10.37,2013-02-11 08:00:00,
2013-02-11 03:05:00,40.6,27.0,29.70,SE,143,10.8,18.4,58,0.00,OVC,BKN,0.00,0.0,WeatherDisplay:10.37,2013-02-11 08:05:00,
2013-02-11 03:10:00,40.6,27.8,29.70,SSE,158,5.1,9.3,60,0.00,OVC,BKN,0.00,0.0,WeatherDisplay:10.37,2013-02-11 08:10:00,
2013-02-11 03:15:00,40.5,28.1,29.70,SE,135,6.8,12.7,61,0.00,OVC,BKN,0.00,0.0,WeatherDisplay:10.37,2013-02-11 08:15:00,
2013-02-11 03:20:00,40.3,29.1,29.70,SSE,159,5.5,8.1,64,0.00,-RA,BKN,0.00,0.0,WeatherDisplay:10.37,2013-02-11 08:20:00,
2013-02-11 03:25:00,39.9,28.7,29.70,SSW,192,6.1,10.4,64,0.00,-RA,BKN,0.00,0.0,WeatherDisplay:10.37,2013-02-11 08:25:00,
2013-02-11 03:30:00,39.9,28.7,29.70,SSE,163,5.6,10.4,64,0.00,-RA,BKN,0.00,0.0,WeatherDisplay:10.37,2013-02-11 08:30:00,
2013-02-11 03:35:00,39.9,28.7,29.69,SSE,151,4.9,8.1,64,0.01,-RA,BKN,0.01,0.0,WeatherDisplay:10.37,2013-02-11 08:35:00,
2013-02-11 03:40:00,39.7,27.8,29.69,SSE,167,8.5,11.5,62,0.01,-RA,BKN,0.01,0.0,WeatherDisplay:10.37,2013-02-11 08:40:00,
2013-02-11 03:45:00,39.9,27.9,29.69,SE,135,6.3,9.2,62,0.01,-RA,BKN,0.01,0.0,WeatherDisplay:10.37,2013-02-11 08:45:00,
2013-02-11 03:50:00,40.1,27.3,29.69,South,174,7.3,12.7,60,0.01,-RA,BKN,0.01,0.0,WeatherDisplay:10.37,2013-02-11 08:50:00,
2013-02-11 03:55:00,40.3,27.1,29.67,ESE,119,5.4,9.2,59,0.01,-RA,BKN,0.01,0.0,WeatherDisplay:10.37,2013-02-11 08:55:00,
2013-02-11 04:00:00,40.6,26.2,29.67,SSE,150,5.8,8.1,56,0.01,-RA,BKN,0.01,0.0,WeatherDisplay:10.37,2013-02-11 09:00:00,
2013-02-11 04:05:00,40.6,26.6,29.67,South,171,4.1,7.4,57,0.01,-RA,BKN,0.01,0.0,WeatherDisplay:10.37,2013-02-11 09:05:00,
2013-02-11 04:10:00,40.6,26.2,29.67,SE,138,8.6,11.5,56,0.01,-RA,BKN,0.01,0.0,WeatherDisplay:10.37,2013-02-11 09:10:00,
2013-02-11 04:15:00,40.6,26.6,29.66,SE,137,4.9,8.1,57,0.01,-RA,BKN,0.01,0.0,WeatherDisplay:10.37,2013-02-11 09:15:00,
2013-02-11 04:20:00,40.6,26.2,29.66,South,176,4.7,8.1,56,0.01,-RA,BKN,0.01,0.0,WeatherDisplay:10.37,2013-02-11 09:20:00,
2013-02-11 04:25:00,40.8,25.9,29.67,SSE,151,5.3,9.2,55,0.01,-RA,BKN,0.01,0.0,WeatherDisplay:10.37,2013-02-11 09:25:00,
2013-02-11 04:30:00,40.8,25.9,29.66,SE,130,5.7,9.4,55,0.01,-RA,BKN,0.01,0.0,WeatherDisplay:10.37,2013-02-11 09:30:00,
2013-02-11 04:35:00,41.2,26.2,29.66,SE,142,5.1,9.2,55,0.00,-RA,BKN,0.01,0.0,WeatherDisplay:10.37,2013-02-11 09:35:00,
2013-02-11 04:40:00,41.2,26.2,29.66,South,179,3.5,5.8,55,0.00,-RA,BKN,0.01,0.0,WeatherDisplay:10.37,2013-02-11 09:40:00,
2013-02-11 04:45:00,41.0,27.3,29.65,SE,132,4.7,9.2,58,0.00,-RA,BKN,0.01,0.0,WeatherDisplay:10.37,2013-02-11 09:45:00,
2013-02-11 04:50:00,40.8,27.2,29.65,SSE,163,4.8,7.4,58,0.00,-RA,BKN,0.01,0.0,WeatherDisplay:10.37,2013-02-11 09:50:00,
2013-02-11 04:55:00,40.8,27.6,29.64,SSW,193,5.4,9.2,59,0.00,-RA,BKN,0.01,0.0,WeatherDisplay:10.37,2013-02-11 09:55:00,
2013-02-11 05:00:00,41.0,27.8,29.63,SSE,152,6.8,9.2,59,0.00,-RA,BKN,0.01,0.0,WeatherDisplay:10.37,2013-02-11 10:00:00,
2013-02-11 05:05:00,41.0,28.2,29.63,ESE,112,6.7,15.0,60,0.00,-RA,BKN,0.01,0.0,WeatherDisplay:10.37,2013-02-11 10:05:00,
2013-02-11 05:10:00,40.8,28.4,29.63,SE,140,8.6,12.7,61,0.00,-RA,BKN,0.01,0.0,WeatherDisplay:10.37,2013-02-11 10:10:00,
2013-02-11 05:15:00,41.2,28.7,29.63,SSE,167,5.9,9.2,61,0.00,-RA,BKN,0.01,0.0,WeatherDisplay:10.37,2013-02-11 10:15:00,
2013-02-11 05:20:00,41.2,29.9,29.63,SSE,163,4.8,8.1,64,0.01,-RA,BKN,0.02,0.0,WeatherDisplay:10.37,2013-02-11 10:20:00,
2013-02-11 05:25:00,41.2,30.3,29.63,South,180,4.3,6.9,65,0.01,-RA,BKN,0.02,0.0,WeatherDisplay:10.37,2013-02-11 10:25:00,
2013-02-11 05:30:00,41.2,30.7,29.63,SSE,147,4.3,6.9,66,0.01,-RA,BKN,0.02,0.0,WeatherDisplay:10.37,2013-02-11 10:30:00,
2013-02-11 05:35:00,41.2,31.4,29.63,SSW,208,5.6,11.5,68,0.01,-SN,BKN,0.02,0.0,WeatherDisplay:10.37,2013-02-11 10:35:00,
2013-02-11 05:40:00,41.2,32.1,29.63,SSE,166,5.3,8.1,70,0.01,-SN,BKN,0.02,0.0,WeatherDisplay:10.37,2013-02-11 10:40:00,
2013-02-11 05:45:00,41.2,32.8,29.63,SSE,156,3.8,5.8,72,0.01,-SN,BKN,0.02,0.0,WeatherDisplay:10.37,2013-02-11 10:45:00,
2013-02-11 05:50:00,41.0,33.7,29.63,SSE,162,3.8,5.8,75,0.01,OVC,BKN,0.02,0.0,WeatherDisplay:10.37,2013-02-11 10:50:00,
2013-02-11 05:55:00,40.8,34.2,29.63,South,182,3.9,5.8,77,0.01,OVC,BKN,0.02,0.0,WeatherDisplay:10.37,2013-02-11 10:55:00,
2013-02-11 06:00:00,40.8,34.8,29.62,South,185,2.8,5.8,79,0.01,OVC,BKN,0.02,0.0,WeatherDisplay:10.37,2013-02-11 11:00:00,
2013-02-11 06:05:00,40.6,35.9,29.62,South,181,3.3,6.9,83,0.02,RA,BKN,0.03,0.0,WeatherDisplay:10.37,2013-02-11 11:05:00,
2013-02-11 06:10:00,40.6,36.2,29.62,SSE,166,4.5,6.9,84,0.02,RA,BKN,0.03,0.0,WeatherDisplay:10.37,2013-02-11 11:10:00,
2013-02-11 06:15:00,40.5,36.6,29.62,ESE,104,5.6,8.1,86,0.03,RA,BKN,0.04,0.0,WeatherDisplay:10.37,2013-02-11 11:15:00,
2013-02-11 06:20:00,40.5,36.6,29.61,SSE,167,3.4,4.6,86,0.02,-RA,BKN,0.04,0.0,WeatherDisplay:10.37,2013-02-11 11:20:00,
2013-02-11 06:25:00,40.5,36.9,29.61,SE,133,2.5,4.6,87,0.02,-RA,BKN,0.04,0.0,WeatherDisplay:10.37,2013-02-11 11:25:00,
2013-02-11 06:30:00,40.1,36.5,29.61,SE,141,5.4,10.4,87,0.02,-RA,BKN,0.04,0.0,WeatherDisplay:10.37,2013-02-11 11:30:00,
2013-02-11 06:35:00,40.1,36.8,29.61,South,169,4.4,5.8,88,0.02,-RA,BKN,0.04,0.0,WeatherDisplay:10.37,2013-02-11 11:35:00,
2013-02-11 06:40:00,39.9,36.7,29.61,SSE,162,4.3,6.9,88,0.02,-RA,BKN,0.04,0.0,WeatherDisplay:10.37,2013-02-11 11:40:00,
2013-02-11 06:45:00,39.9,36.9,29.60,SSE,159,4.2,6.9,89,0.03,-RA,BKN,0.05,0.0,WeatherDisplay:10.37,2013-02-11 11:45:00,
2013-02-11 06:50:00,39.9,36.9,29.59,SE,138,4.9,6.9,89,0.04,-RA,BKN,0.06,0.0,WeatherDisplay:10.37,2013-02-11 11:50:00,
2013-02-11 06:55:00,39.9,36.9,29.60,SE,144,5.0,6.9,89,0.04,-RA,BKN,0.06,0.0,WeatherDisplay:10.37,2013-02-11 11:55:00,
2013-02-11 07:00:00,39.9,36.9,29.60,South,178,3.9,8.1,89,0.04,-RA,BKN,0.06,0.0,WeatherDisplay:10.37,2013-02-11 12:00:00,
2013-02-11 07:05:00,39.9,36.9,29.60,SSE,154,4.9,6.9,89,0.03,OVC,BKN,0.06,0.0,WeatherDisplay:10.37,2013-02-11 12:05:00,
2013-02-11 07:10:00,40.1,36.8,29.60,South,176,4.9,8.1,88,0.03,OVC,BKN,0.06,0.0,WeatherDisplay:10.37,2013-02-11 12:10:00,
2013-02-11 07:15:00,40.1,36.8,29.59,South,171,2.9,4.6,88,0.02,OVC,BKN,0.06,0.0,WeatherDisplay:10.37,2013-02-11 12:15:00,
2013-02-11 07:20:00,40.1,36.8,29.59,SE,143,5.4,8.1,88,0.02,OVC,BKN,0.06,0.0,WeatherDisplay:10.37,2013-02-11 12:20:00,
2013-02-11 07:25:00,40.3,37.0,29.60,ESE,117,4.9,7.5,88,0.02,OVC,BKN,0.06,0.0,WeatherDisplay:10.37,2013-02-11 12:25:00,
2013-02-11 07:30:00,40.3,37.0,29.60,SSE,167,2.8,4.6,88,0.02,OVC,BKN,0.06,0.0,WeatherDisplay:10.37,2013-02-11 12:30:00,
2013-02-11 07:35:00,40.5,37.2,29.60,South,185,3.2,5.8,88,0.02,OVC,BKN,0.06,0.0,WeatherDisplay:10.37,2013-02-11 12:35:00,
2013-02-11 07:40:00,40.6,37.4,29.59,SE,140,3.9,6.9,88,0.02,OVC,BKN,0.06,0.0,WeatherDisplay:10.37,2013-02-11 12:40:00,
2013-02-11 07:45:00,40.8,37.5,29.59,SSE,159,2.4,4.6,88,0.01,OVC,BKN,0.06,0.0,WeatherDisplay:10.37,2013-02-11 12:45:00,
2013-02-11 07:50:00,41.2,37.6,29.59,SSE,161,1.1,4.6,87,0.00,OVC,BKN,0.06,0.0,WeatherDisplay:10.37,2013-02-11 12:50:00,
2013-02-11 07:55:00,41.5,38.0,29.59,SSE,153,3.9,6.9,87,0.00,OVC,BKN,0.06,0.0,WeatherDisplay:10.37,2013-02-11 12:55:00,
2013-02-11 08:00:00,41.7,37.8,29.59,South,187,3.4,4.6,86,0.00,OVC,BKN,0.06,0.0,WeatherDisplay:10.37,2013-02-11 13:00:00,
2013-02-11 08:05:00,41.9,38.0,29.59,SSE,159,4.2,5.8,86,0.00,OVC,BKN,0.06,0.0,WeatherDisplay:10.37,2013-02-11 13:05:00,
2013-02-11 08:10:00,42.1,38.2,29.59,SSE,163,3.6,5.8,86,0.00,OVC,BKN,0.06,0.0,WeatherDisplay:10.37,2013-02-11 13:10:00,
2013-02-11 08:15:00,42.6,38.7,29.58,South,183,4.0,6.9,86,0.00,OVC,BKN,0.06,0.0,WeatherDisplay:10.37,2013-02-11 13:15:00,
2013-02-11 08:20:00,42.6,38.7,29.58,South,171,3.7,5.9,86,0.00,OVC,BKN,0.06,24.8,WeatherDisplay:10.37,2013-02-11 13:20:00,
2013-02-11 08:25:00,43.0,39.1,29.58,South,177,3.1,4.6,86,0.00,OVC,BKN,0.06,36.1,WeatherDisplay:10.37,2013-02-11 13:25:00,
2013-02-11 08:30:00,43.2,39.3,29.58,SSE,157,3.9,5.8,86,0.00,OVC,BKN,0.06,36.1,WeatherDisplay:10.37,2013-02-11 13:30:00,
2013-02-11 08:35:00,43.3,39.1,29.57,SE,145,4.5,5.8,85,0.00,OVC,BKN,0.06,73.6,WeatherDisplay:10.37,2013-02-11 13:35:00,
2013-02-11 08:40:00,43.7,39.5,29.57,SSE,164,3.8,6.9,85,0.00,OVC,BKN,0.06,215.4,WeatherDisplay:10.37,2013-02-11 13:40:00,
2013-02-11 08:45:00,44.4,39.9,29.58,South,171,2.1,4.6,84,0.00,OVC,BKN,0.06,166.6,WeatherDisplay:10.37,2013-02-11 13:45:00,
2013-02-11 08:50:00,44.4,39.6,29.57,SSE,156,4.3,8.1,83,0.00,OVC,BKN,0.06,56.9,WeatherDisplay:10.37,2013-02-11 13:50:00,
2013-02-11 08:55:00,44.2,39.4,29.58,SE,138,3.9,6.9,83,0.00,OVC,BKN,0.06,65.6,WeatherDisplay:10.37,2013-02-11 13:55:00,
2013-02-11 09:00:00,44.2,39.4,29.57,SSE,167,3.6,5.8,83,0.00,OVC,BKN,0.06,42.1,WeatherDisplay:10.37,2013-02-11 14:00:00,
2013-02-11 09:05:00,44.2,39.7,29.57,South,170,3.5,6.9,84,0.00,BKN,,0.06,47.5,WeatherDisplay:10.37,2013-02-11 14:05:00,
2013-02-11 09:10:00,44.8,40.2,29.57,South,174,4.8,6.9,84,0.00,BKN,,0.06,91.7,WeatherDisplay:10.37,2013-02-11 14:10:00,
2013-02-11 09:15:00,45.3,40.8,29.57,SSW,194,4.6,6.9,84,0.00,BKN,,0.06,81.6,WeatherDisplay:10.37,2013-02-11 14:15:00,
2013-02-11 09:20:00,45.3,40.8,29.56,South,174,7.2,10.4,84,0.00,BKN,,0.06,83.0,WeatherDisplay:10.37,2013-02-11 14:20:00,
2013-02-11 09:25:00,46.0,40.9,29.55,SSW,210,6.6,15.0,82,0.00,BKN,,0.06,174.6,WeatherDisplay:10.37,2013-02-11 14:25:00,
2013-02-11 09:30:00,46.9,41.4,29.55,South,190,8.1,12.7,81,0.00,BKN,,0.06,388.7,WeatherDisplay:10.37,2013-02-11 14:30:00,
2013-02-11 09:35:00,47.1,40.9,29.55,South,182,8.2,9.2,79,0.00,BKN,,0.06,408.1,WeatherDisplay:10.37,2013-02-11 14:35:00,
2013-02-11 09:40:00,47.1,41.3,29.54,South,189,7.8,15.0,80,0.00,BKN,,0.06,452.2,WeatherDisplay:10.37,2013-02-11 14:40:00,
2013-02-11 09:45:00,47.1,40.9,29.53,SSW,199,7.5,10.8,79,0.00,BKN,,0.06,416.1,WeatherDisplay:10.37,2013-02-11 14:45:00,
2013-02-11 09:50:00,47.5,41.3,29.53,South,180,10.1,11.5,79,0.00,BKN,,0.06,480.3,WeatherDisplay:10.37,2013-02-11 14:50:00,
2013-02-11 09:55:00,47.8,41.3,29.53,South,185,10.3,18.4,78,0.00,BKN,,0.06,463.6,WeatherDisplay:10.37,2013-02-11 14:55:00,
2013-02-11 10:00:00,47.7,41.1,29.52,SSW,198,10.1,16.1,78,0.00,BKN,,0.06,448.9,WeatherDisplay:10.37,2013-02-11 15:00:00,
2013-02-11 10:05:00,48.4,41.5,29.52,SSW,199,6.8,10.4,77,0.00,BKN,,0.06,430.8,WeatherDisplay:10.37,2013-02-11 15:05:00,
2013-02-11 10:10:00,48.9,42.0,29.53,South,187,7.6,11.5,77,0.00,BKN,,0.06,434.2,WeatherDisplay:10.37,2013-02-11 15:10:00,
2013-02-11 10:15:00,48.9,41.7,29.53,SSW,195,9.4,15.0,76,0.00,BKN,,0.06,440.9,WeatherDisplay:10.37,2013-02-11 15:15:00,
2013-02-11 10:20:00,49.5,42.2,29.53,SSW,203,6.9,13.8,76,0.00,SCT,BKN,0.06,447.6,WeatherDisplay:10.37,2013-02-11 15:20:00,
2013-02-11 10:25:00,49.1,41.9,29.52,SW,214,10.7,12.7,76,0.00,SCT,BKN,0.06,460.3,WeatherDisplay:10.37,2013-02-11 15:25:00,
2013-02-11 10:30:00,49.3,42.0,29.52,SSW,197,10.6,13.8,76,0.00,SCT,BKN,0.06,496.4,WeatherDisplay:10.37,2013-02-11 15:30:00,
2013-02-11 10:35:00,50.2,42.6,29.52,SSW,204,6.7,13.8,75,0.00,SCT,BKN,0.06,543.9,WeatherDisplay:10.37,2013-02-11 15:35:00,
2013-02-11 10:40:00,50.2,42.2,29.52,SSE,168,6.9,12.7,74,0.00,SCT,BKN,0.06,463.6,WeatherDisplay:10.37,2013-02-11 15:40:00,
2013-02-11 10:45:00,49.6,41.7,29.52,South,188,11.6,16.1,74,0.00,SCT,BKN,0.06,463.6,WeatherDisplay:10.37,2013-02-11 15:45:00,
2013-02-11 10:50:00,49.5,41.5,29.52,South,179,12.5,18.4,74,0.00,SCT,BKN,0.06,465.6,WeatherDisplay:10.37,2013-02-11 15:50:00,
2013-02-11 10:55:00,49.8,41.9,29.51,SSW,198,7.4,13.8,74,0.00,SCT,BKN,0.06,465.6,WeatherDisplay:10.37,2013-02-11 15:55:00,
2013-02-11 11:00:00,49.8,41.5,29.51,South,174,8.7,11.5,73,0.00,SCT,BKN,0.06,465.6,WeatherDisplay:10.37,2013-02-11 16:00:00,
2013-02-11 11:05:00,49.8,41.5,29.51,SSW,194,10.2,12.7,73,0.00,SCT,BKN,0.06,471.6,WeatherDisplay:10.37,2013-02-11 16:05:00,
2013-02-11 11:10:00,49.6,41.3,29.51,South,184,12.4,19.6,73,0.00,SCT,BKN,0.06,473.7,WeatherDisplay:10.37,2013-02-11 16:10:00,
2013-02-11 11:15:00,49.8,41.2,29.51,SSW,193,13.1,17.3,72,0.00,SCT,BKN,0.06,475.0,WeatherDisplay:10.37,2013-02-11 16:15:00,
2013-02-11 11:20:00,50.4,41.3,29.51,SSE,163,7.9,15.0,71,0.00,SCT,BKN,0.06,478.3,WeatherDisplay:10.37,2013-02-11 16:20:00,
2013-02-11 11:25:00,50.5,41.5,29.51,SSW,202,11.0,18.4,71,0.00,SCT,BKN,0.06,489.7,WeatherDisplay:10.37,2013-02-11 16:25:00,
2013-02-11 11:30:00,50.9,41.5,29.50,SSW,210,9.7,12.7,70,0.00,SCT,BKN,0.06,480.3,WeatherDisplay:10.37,2013-02-11 16:30:00,
2013-02-11 11:35:00,51.4,41.6,29.50,SSW,202,8.1,11.3,69,0.00,SCT,BKN,0.06,481.7,WeatherDisplay:10.37,2013-02-11 16:35:00,
2013-02-11 11:40:00,51.6,41.8,29.50,SSW,193,7.2,9.2,69,0.00,SCT,BKN,0.06,481.7,WeatherDisplay:10.37,2013-02-11 16:40:00,
2013-02-11 11:45:00,52.3,42.1,29.48,SSW,193,4.3,8.1,68,0.00,SCT,BKN,0.06,488.4,WeatherDisplay:10.37,2013-02-11 16:45:00,
2013-02-11 11:50:00,52.3,41.7,29.48,South,169,5.4,18.4,67,0.00,SCT,BKN,0.06,509.8,WeatherDisplay:10.37,2013-02-11 16:50:00,
2013-02-11 11:55:00,52.3,41.7,29.48,South,188,5.2,10.4,67,0.00,SCT,BKN,0.06,169.9,WeatherDisplay:10.37,2013-02-11 16:55:00,
2013-02-11 12:00:00,52.2,41.5,29.48,South,189,7.9,12.7,67,0.00,SCT,BKN,0.06,392.0,WeatherDisplay:10.37,2013-02-11 17:00:00,
2013-02-11 12:05:00,52.9,41.8,29.47,South,189,5.6,10.4,66,0.00,SCT,BKN,0.06,347.9,WeatherDisplay:10.37,2013-02-11 17:05:00,
2013-02-11 12:10:00,52.5,41.5,29.47,SSW,193,7.4,10.4,66,0.00,SCT,BKN,0.06,498.4,WeatherDisplay:10.37,2013-02-11 17:10:00,
2013-02-11 12:15:00,52.5,41.5,29.46,South,189,5.7,9.2,66,0.00,SCT,BKN,0.06,504.4,WeatherDisplay:10.37,2013-02-11 17:15:00,
2013-02-11 12:20:00,52.7,41.7,29.46,South,169,8.2,11.5,66,0.00,BKN,,0.06,509.8,WeatherDisplay:10.37,2013-02-11 17:20:00,
2013-02-11 12:25:00,52.5,41.5,29.46,SSW,193,7.4,10.4,66,0.00,BKN,,0.06,506.4,WeatherDisplay:10.37,2013-02-11 17:25:00,
2013-02-11 12:30:00,52.3,41.3,29.45,SSW,202,6.5,10.5,66,0.00,BKN,,0.06,515.8,WeatherDisplay:10.37,2013-02-11 17:30:00,
2013-02-11 12:35:00,52.5,41.5,29.44,South,190,7.6,10.4,66,0.00,BKN,,0.06,501.1,WeatherDisplay:10.37,2013-02-11 17:35:00,
2013-02-11 12:40:00,52.3,41.7,29.44,SSW,213,8.6,16.1,67,0.00,BKN,,0.06,498.4,WeatherDisplay:10.37,2013-02-11 17:40:00,
2013-02-11 12:45:00,52.9,42.2,29.44,South,176,6.0,9.2,67,0.00,BKN,,0.06,507.8,WeatherDisplay:10.37,2013-02-11 17:45:00,
2013-02-11 12:50:00,52.9,41.8,29.44,South,189,9.1,12.7,66,0.00, +RA,BKN,0.06,498.4,WeatherDisplay:10.37,2013-02-11 17:50:00,
2013-02-11 12:55:00,52.9,41.4,29.44,South,191,8.9,15.0,65,0.00, +RA,BKN,0.06,206.1,WeatherDisplay:10.37,2013-02-11 17:55:00,
2013-02-11 13:00:00,52.3,40.9,29.43,SSW,196,10.4,13.8,65,0.00, +RA,BKN,0.06,189.3,WeatherDisplay:10.37,2013-02-11 18:00:00,
2013-02-11 13:05:00,51.6,39.8,29.43,SSE,164,14.1,17.3,64,0.00,-RA,BKN,0.06,106.4,WeatherDisplay:10.37,2013-02-11 18:05:00,
2013-02-11 13:10:00,51.8,40.4,29.43,SSW,192,8.0,11.5,65,0.00,-RA,BKN,0.06,62.2,WeatherDisplay:10.37,2013-02-11 18:10:00,
2013-02-11 13:15:00,48.0,38.7,29.47,WNW,284,13.3,19.6,70,0.00,-RA,BKN,0.06,37.5,WeatherDisplay:10.37,2013-02-11 18:15:00,
2013-02-11 13:20:00,42.4,38.2,29.48,SW,229,11.5,24.2,85,0.01,-RA,BKN,0.07,121.1,WeatherDisplay:10.37,2013-02-11 18:20:00,
2013-02-11 13:25:00,41.7,38.7,29.48,SW,220,12.2,17.4,89,0.01,-RA,BKN,0.07,176.6,WeatherDisplay:10.37,2013-02-11 18:25:00,
2013-02-11 13:30:00,41.2,37.3,29.47,WSW,258,14.9,21.9,86,0.01,-RA,BKN,0.07,155.2,WeatherDisplay:10.37,2013-02-11 18:30:00,
2013-02-11 13:35:00,41.7,38.1,29.48,SW,232,8.5,13.8,87,0.01,-RA,BKN,0.07,300.4,WeatherDisplay:10.37,2013-02-11 18:35:00,
2013-02-11 13:40:00,41.4,37.2,29.47,WSW,244,9.0,13.8,85,0.01,-RA,BKN,0.07,430.8,WeatherDisplay:10.37,2013-02-11 18:40:00,
2013-02-11 13:45:00,41.2,36.4,29.48,SSW,207,11.6,15.0,83,0.01,-RA,BKN,0.07,150.5,WeatherDisplay:10.37,2013-02-11 18:45:00,
2013-02-11 13:50:00,40.8,36.1,29.48,SW,219,11.0,15.0,83,0.01,-RA,BKN,0.07,124.4,WeatherDisplay:10.37,2013-02-11 18:50:00,
2013-02-11 13:55:00,40.6,35.3,29.48,SSW,207,13.4,18.4,81,0.01,-RA,BKN,0.07,124.4,WeatherDisplay:10.37,2013-02-11 18:55:00,
2013-02-11 14:00:00,40.8,35.1,29.49,South,190,13.0,20.7,80,0.01,-RA,BKN,0.07,99.7,WeatherDisplay:10.37,2013-02-11 19:00:00,
2013-02-11 14:05:00,40.8,34.5,29.48,SSW,193,13.3,20.0,78,0.01,-RA,BKN,0.07,129.1,WeatherDisplay:10.37,2013-02-11 19:05:00,
2013-02-11 14:10:00,41.0,34.7,29.48,SW,216,10.2,15.0,78,0.01,-RA,BKN,0.07,111.1,WeatherDisplay:10.37,2013-02-11 19:10:00,
2013-02-11 14:15:00,40.8,33.8,29.48,SSW,206,12.5,18.4,76,0.01,-RA,BKN,0.07,117.7,WeatherDisplay:10.37,2013-02-11 19:15:00,
2013-02-11 14:20:00,40.5,33.8,29.48,SW,222,13.2,19.6,77,0.01,OVC,BKN,0.07,101.0,WeatherDisplay:10.37,2013-02-11 19:20:00,
2013-02-11 14:25:00,40.3,33.6,29.48,West,263,11.2,19.6,77,0.00,OVC,BKN,0.07,73.6,WeatherDisplay:10.37,2013-02-11 19:25:00,
2013-02-11 14:30:00,39.9,33.3,29.48,SW,216,13.6,18.4,77,0.00,OVC,BKN,0.07,85.0,WeatherDisplay:10.37,2013-02-11 19:30:00,
2013-02-11 14:35:00,39.6,33.3,29.48,SW,230,14.9,24.2,78,0.00,OVC,BKN,0.07,80.3,WeatherDisplay:10.37,2013-02-11 19:35:00,
2013-02-11 14:40:00,39.6,32.9,29.49,SSW,211,12.2,19.6,77,0.00,OVC,BKN,0.07,48.8,WeatherDisplay:10.37,2013-02-11 19:40:00,
2013-02-11 14:45:00,39.4,32.8,29.49,WSW,252,13.4,23.0,77,0.00,OVC,BKN,0.07,52.2,WeatherDisplay:10.37,2013-02-11 19:45:00,
2013-02-11 14:50:00,39.0,32.7,29.49,SSW,206,13.3,26.5,78,0.00,OVC,BKN,0.07,52.2,WeatherDisplay:10.37,2013-02-11 19:50:00,
2013-02-11 14:55:00,39.0,32.4,29.50,SW,224,14.9,16.1,77,0.00,OVC,BKN,0.07,50.8,WeatherDisplay:10.37,2013-02-11 19:55:00,
2013-02-11 15:00:00,38.8,31.9,29.50,SW,226,14.8,19.6,76,0.00,OVC,BKN,0.07,66.9,WeatherDisplay:10.37,2013-02-11 20:00:00,
2013-02-11 15:05:00,38.7,31.7,29.50,SW,215,12.1,18.4,76,0.00,OVC,BKN,0.07,39.5,WeatherDisplay:10.37,2013-02-11 20:05:00,
2013-02-11 15:10:00,38.5,31.9,29.50,South,184,13.9,15.0,77,0.00,OVC,BKN,0.07,42.1,WeatherDisplay:10.37,2013-02-11 20:10:00,
2013-02-11 15:15:00,38.5,31.9,29.50,SSW,206,12.4,15.5,77,0.00,OVC,BKN,0.07,29.4,WeatherDisplay:10.37,2013-02-11 20:15:00,
2013-02-11 15:20:00,38.1,31.9,29.50,WSW,256,10.9,18.4,78,0.00,OVC,BKN,0.07,36.1,WeatherDisplay:10.37,2013-02-11 20:20:00,
2013-02-11 15:25:00,38.1,31.9,29.49,SSW,203,12.2,20.7,78,0.00,OVC,BKN,0.07,24.8,WeatherDisplay:10.37,2013-02-11 20:25:00,
2013-02-11 15:30:00,37.9,32.0,29.50,WSW,252,10.0,15.0,79,0.00,OVC,BKN,0.07,24.8,WeatherDisplay:10.37,2013-02-11 20:30:00,
2013-02-11 15:35:00,37.6,31.0,29.50,SW,234,16.4,26.5,77,0.00,OVC,BKN,0.07,19.4,WeatherDisplay:10.37,2013-02-11 20:35:00,
2013-02-11 15:40:00,37.4,30.2,29.50,WSW,249,16.1,24.2,75,0.00,OVC,BKN,0.07,27.4,WeatherDisplay:10.37,2013-02-11 20:40:00,
2013-02-11 15:45:00,37.4,30.2,29.50,WSW,245,13.1,20.7,75,0.00,OVC,BKN,0.07,14.7,WeatherDisplay:10.37,2013-02-11 20:45:00,
2013-02-11 15:50:00,37.0,30.2,29.50,SSW,205,15.0,18.4,76,0.00,OVC,BKN,0.07,22.7,WeatherDisplay:10.37,2013-02-11 20:50:00,
2013-02-11 15:55:00,37.0,30.5,29.50,South,191,11.6,15.0,77,0.00,OVC,BKN,0.07,18.1,WeatherDisplay:10.37,2013-02-11 20:55:00,
2013-02-11 16:00:00,36.5,29.7,29.50,WSW,239,16.7,24.2,76,0.00,OVC,BKN,0.07,21.4,WeatherDisplay:10.37,2013-02-11 21:00:00,
2013-02-11 16:05:00,36.5,30.0,29.50,WSW,241,11.7,15.0,77,0.00,OVC,BKN,0.07,16.1,WeatherDisplay:10.37,2013-02-11 21:05:00,
2013-02-11 16:10:00,36.3,29.8,29.51,WSW,249,14.2,18.4,77,0.00,OVC,BKN,0.07,22.7,WeatherDisplay:10.37,2013-02-11 21:10:00,
2013-02-11 16:15:00,36.1,29.6,29.50,SSW,198,14.8,23.0,77,0.00,OVC,BKN,0.07,24.8,WeatherDisplay:10.37,2013-02-11 21:15:00,
2013-02-11 16:20:00,36.1,29.6,29.49,SSW,205,15.8,23.0,77,0.00,OVC,BKN,0.07,24.8,WeatherDisplay:10.37,2013-02-11 21:20:00,
2013-02-11 16:25:00,36.1,29.3,29.50,SW,227,17.6,25.3,76,0.00,OVC,BKN,0.07,32.8,WeatherDisplay:10.37,2013-02-11 21:25:00,
2013-02-11 16:30:00,36.3,29.5,29.49,South,188,13.4,17.4,76,0.00,OVC,BKN,0.07,29.4,WeatherDisplay:10.37,2013-02-11 21:30:00,
2013-02-11 16:35:00,36.1,29.0,29.50,West,265,16.0,21.9,75,0.01,RA,BKN,0.08,24.8,WeatherDisplay:10.37,2013-02-11 21:35:00,
2013-02-11 16:40:00,36.1,29.3,29.50,WSW,237,13.0,17.3,76,0.01,RA,BKN,0.08,26.1,WeatherDisplay:10.37,2013-02-11 21:40:00,
2013-02-11 16:45:00,36.1,28.6,29.51,SSW,211,13.2,18.4,74,0.01,OVC,BKN,0.08,24.8,WeatherDisplay:10.37,2013-02-11 21:45:00,
2013-02-11 16:50:00,36.1,29.0,29.51,South,189,13.5,19.6,75,0.01,OVC,BKN,0.08,13.4,WeatherDisplay:10.37,2013-02-11 21:50:00,
2013-02-11 16:55:00,36.1,28.6,29.52,South,190,13.8,20.7,74,0.01,OVC,BKN,0.08,16.1,WeatherDisplay:10.37,2013-02-11 21:55:00,
2013-02-11 17:00:00,36.1,28.6,29.52,SSW,202,13.5,23.0,74,0.01,OVC,BKN,0.08,8.0,WeatherDisplay:10.37,2013-02-11 22:00:00,
2013-02-11 17:05:00,36.1,28.3,29.52,SW,214,14.8,21.9,73,0.01,OVC,BKN,0.08,14.7,WeatherDisplay:10.37,2013-02-11 22:05:00,
2013-02-11 17:10:00,36.1,28.3,29.52,SW,216,13.3,16.1,73,0.01,OVC,BKN,0.08,10.0,WeatherDisplay:10.37,2013-02-11 22:10:00,
2013-02-11 17:15:00,36.1,28.6,29.54,SSW,198,12.6,16.7,74,0.01,OVC,BKN,0.08,14.7,WeatherDisplay:10.37,2013-02-11 22:15:00,
2013-02-11 17:20:00,36.1,28.6,29.54,SSW,203,10.8,17.3,74,0.01,OVC,BKN,0.08,6.7,WeatherDisplay:10.37,2013-02-11 22:20:00,
2013-02-11 17:25:00,36.0,28.5,29.54,WSW,239,12.5,21.9,74,0.01,OVC,BKN,0.08,3.3,WeatherDisplay:10.37,2013-02-11 22:25:00,
2013-02-11 17:30:00,35.8,28.0,29.54,SW,234,16.9,29.9,73,0.01,OVC,BKN,0.08,4.7,WeatherDisplay:10.37,2013-02-11 22:30:00,
2013-02-11 17:35:00,35.6,28.5,29.54,SW,233,13.5,24.2,75,0.00,OVC,BKN,0.08,4.7,WeatherDisplay:10.37,2013-02-11 22:35:00,
2013-02-11 17:40:00,35.4,28.6,29.55,WSW,245,13.0,23.0,76,0.00,OVC,BKN,0.08,1.3,WeatherDisplay:10.37,2013-02-11 22:40:00,
2013-02-11 17:45:00,35.4,28.6,29.55,WSW,237,12.6,23.0,76,0.00,OVC,BKN,0.08,1.3,WeatherDisplay:10.37,2013-02-11 22:45:00,
2013-02-11 17:50:00,35.4,28.6,29.54,NW,305,14.2,20.7,76,0.00,OVC,BKN,0.08,1.3,WeatherDisplay:10.37,2013-02-11 22:50:00,
2013-02-11 17:55:00,35.4,28.6,29.54,SW,223,13.1,26.5,76,0.00,OVC,BKN,0.08,0.0,WeatherDisplay:10.37,2013-02-11 22:55:00,
2013-02-11 18:00:00,35.4,28.6,29.54,South,180,13.6,21.9,76,0.00,OVC,BKN,0.08,0.0,WeatherDisplay:10.37,2013-02-11 23:00:00,
2013-02-11 18:05:00,35.4,28.3,29.55,SSW,213,15.0,18.4,75,0.00,OVC,BKN,0.08,0.0,WeatherDisplay:10.37,2013-02-11 23:05:00,
2013-02-11 18:10:00,35.4,27.6,29.55,SSW,200,16.5,28.8,73,0.00,OVC,BKN,0.08,0.0,WeatherDisplay:10.37,2013-02-11 23:10:00,
2013-02-11 18:15:00,35.4,27.6,29.55,SSW,194,14.0,21.3,73,0.00,OVC,BKN,0.08,0.0,WeatherDisplay:10.37,2013-02-11 23:15:00,
2013-02-11 18:20:00,35.4,28.0,29.55,SSW,208,11.3,15.0,74,0.00,-SN,BKN,0.08,0.0,WeatherDisplay:10.37,2013-02-11 23:20:00,
2013-02-11 18:25:00,35.2,27.8,29.55,WSW,240,12.7,23.0,74,0.00,-SN,BKN,0.08,0.0,WeatherDisplay:10.37,2013-02-11 23:25:00,
2013-02-11 18:30:00,35.1,27.6,29.55,SSW,212,14.7,16.7,74,0.00,-SN,BKN,0.08,0.0,WeatherDisplay:10.37,2013-02-11 23:30:00,
2013-02-11 18:35:00,34.9,27.8,29.55,SW,232,14.0,21.9,75,0.00,-SN,BKN,0.08,0.0,WeatherDisplay:10.37,2013-02-11 23:35:00,
2013-02-11 18:40:00,34.5,27.7,29.56,SW,223,18.0,20.7,76,0.00,-SN,BKN,0.08,0.0,WeatherDisplay:10.37,2013-02-11 23:40:00,
2013-02-11 18:45:00,34.5,28.4,29.57,SW,220,15.0,20.7,78,0.00,-SN,BKN,0.08,0.0,WeatherDisplay:10.37,2013-02-11 23:45:00,
2013-02-11 18:50:00,34.3,27.9,29.55,SSW,198,15.4,21.9,77,0.00,-SN,BKN,0.08,0.0,WeatherDisplay:10.37,2013-02-11 23:50:00,
2013-02-11 18:55:00,34.3,27.6,29.56,SW,223,16.8,20.7,76,0.00,-SN,BKN,0.08,0.0,WeatherDisplay:10.37,2013-02-11 23:55:00,
2013-02-11 19:00:00,34.5,27.4,29.55,SSW,206,14.6,21.9,75,0.00,-SN,BKN,0.08,0.0,WeatherDisplay:10.37,2013-02-12 00:00:00,
2013-02-11 19:05:00,34.5,27.4,29.56,SW,234,15.9,24.2,75,0.00,-SN,BKN,0.08,0.0,WeatherDisplay:10.37,2013-02-12 00:05:00,
2013-02-11 19:10:00,34.7,27.6,29.56,SSW,211,13.3,20.6,75,0.00,-SN,BKN,0.08,0.0,WeatherDisplay:10.37,2013-02-12 00:10:00,
2013-02-11 19:15:00,34.7,27.3,29.55,SSW,203,16.0,25.2,74,0.00,-SN,BKN,0.08,0.0,WeatherDisplay:10.37,2013-02-12 00:15:00,
2013-02-11 19:20:00,34.9,27.4,29.57,WSW,239,14.2,20.7,74,0.00,-SN,BKN,0.08,0.0,WeatherDisplay:10.37,2013-02-12 00:20:00,
2013-02-11 19:25:00,35.1,27.6,29.56,SSW,211,13.5,21.6,74,0.00,-SN,BKN,0.08,0.0,WeatherDisplay:10.37,2013-02-12 00:25:00,
2013-02-11 19:30:00,34.9,27.4,29.56,SW,236,12.6,17.3,74,0.00,-SN,BKN,0.08,0.0,WeatherDisplay:10.37,2013-02-12 00:30:00,
2013-02-11 19:35:00,35.1,27.6,29.57,WSW,240,10.4,16.1,74,0.00,-SN,BKN,0.08,0.0,WeatherDisplay:10.37,2013-02-12 00:35:00,
2013-02-11 19:40:00,35.1,27.3,29.55,SSW,206,14.6,23.0,73,0.00,-SN,BKN,0.08,0.0,WeatherDisplay:10.37,2013-02-12 00:40:00,
2013-02-11 19:45:00,35.4,28.0,29.55,SSW,206,8.4,12.1,74,0.00,-SN,BKN,0.08,0.0,WeatherDisplay:10.37,2013-02-12 00:45:00,
2013-02-11 19:50:00,35.1,27.6,29.55,WSW,247,14.0,18.4,74,0.00,-SN,BKN,0.08,0.0,WeatherDisplay:10.37,2013-02-12 00:50:00,
2013-02-11 19:55:00,35.2,27.8,29.56,SW,227,10.7,18.4,74,0.00,-SN,BKN,0.08,0.0,WeatherDisplay:10.37,2013-02-12 00:55:00,
2013-02-11 20:00:00,35.2,27.8,29.55,SSW,200,14.9,22.4,74,0.00,-SN,BKN,0.08,0.0,WeatherDisplay:10.37,2013-02-12 01:00:00,
2013-02-11 20:05:00,35.1,27.6,29.55,SW,233,16.1,25.3,74,0.00,-SN,BKN,0.08,0.0,WeatherDisplay:10.37,2013-02-12 01:05:00,
2013-02-11 20:10:00,35.1,27.6,29.55,SW,225,16.2,26.5,74,0.00,-SN,BKN,0.08,0.0,WeatherDisplay:10.37,2013-02-12 01:10:00,
2013-02-11 20:15:00,35.2,27.8,29.55,SW,221,16.0,28.8,74,0.00,-SN,BKN,0.08,0.0,WeatherDisplay:10.37,2013-02-12 01:15:00,
2013-02-11 20:20:00,34.9,27.4,29.55,SW,227,19.2,28.8,74,0.00,-SN,BKN,0.08,0.0,WeatherDisplay:10.37,2013-02-12 01:20:00,
2013-02-11 20:25:00,35.1,27.9,29.55,SW,218,14.4,19.6,75,0.00,-SN,BKN,0.08,0.0,WeatherDisplay:10.37,2013-02-12 01:25:00,
2013-02-11 20:30:00,35.1,27.6,29.55,SSW,212,15.8,23.0,74,0.00,-SN,BKN,0.08,0.0,WeatherDisplay:10.37,2013-02-12 01:30:00,
2013-02-11 20:35:00,35.2,28.1,29.55,South,186,12.2,25.3,75,0.00,-SN,BKN,0.08,0.0,WeatherDisplay:10.37,2013-02-12 01:35:00,
2013-02-11 20:40:00,34.9,27.8,29.55,SSW,205,17.8,29.9,75,0.00,-SN,BKN,0.08,0.0,WeatherDisplay:10.37,2013-02-12 01:40:00,
2013-02-11 20:45:00,34.9,27.8,29.55,SW,218,16.7,25.3,75,0.00,-SN,BKN,0.08,0.0,WeatherDisplay:10.37,2013-02-12 01:45:00,
2013-02-11 20:50:00,34.9,28.1,29.55,WSW,244,12.7,20.7,76,0.00,-SN,BKN,0.08,0.0,WeatherDisplay:10.37,2013-02-12 01:50:00,
2013-02-11 20:55:00,34.9,28.4,29.55,SSW,205,15.6,19.6,77,0.00,-SN,BKN,0.08,0.0,WeatherDisplay:10.37,2013-02-12 01:55:00,
2013-02-11 21:00:00,34.7,28.2,29.55,SSW,200,16.1,23.0,77,0.00,-SN,BKN,0.08,0.0,WeatherDisplay:10.37,2013-02-12 02:00:00,
2013-02-11 21:05:00,34.7,28.5,29.55,SSW,205,16.1,20.7,78,0.00,-SN,BKN,0.08,0.0,WeatherDisplay:10.37,2013-02-12 02:05:00,
2013-02-11 21:10:00,34.7,28.5,29.56,SW,221,14.1,21.9,78,0.00,-SN,BKN,0.08,0.0,WeatherDisplay:10.37,2013-02-12 02:10:00,
2013-02-11 21:15:00,34.5,28.4,29.55,SW,233,14.5,26.5,78,0.00,-SN,BKN,0.08,0.0,WeatherDisplay:10.37,2013-02-12 02:15:00,
2013-02-11 21:20:00,34.5,28.4,29.55,WSW,245,14.7,21.9,78,0.00,OVC,BKN,0.08,0.0,WeatherDisplay:10.37,2013-02-12 02:20:00,
2013-02-11 21:25:00,34.5,28.4,29.55,SW,236,14.6,19.6,78,0.00,OVC,BKN,0.08,0.0,WeatherDisplay:10.37,2013-02-12 02:25:00,
2013-02-11 21:30:00,34.5,28.4,29.55,WSW,237,15.2,21.9,78,0.00,OVC,BKN,0.08,0.0,WeatherDisplay:10.37,2013-02-12 02:30:00,
2013-02-11 21:35:00,34.7,28.5,29.55,WSW,247,12.6,21.9,78,0.00,OVC,BKN,0.08,0.0,WeatherDisplay:10.37,2013-02-12 02:35:00,
2013-02-11 21:40:00,34.5,28.7,29.55,SSW,207,13.8,21.9,79,0.00,OVC,BKN,0.08,0.0,WeatherDisplay:10.37,2013-02-12 02:40:00,
2013-02-11 21:45:00,34.5,28.4,29.55,SW,224,15.7,21.6,78,0.00,OVC,BKN,0.08,0.0,WeatherDisplay:10.37,2013-02-12 02:45:00,
2013-02-11 21:50:00,34.5,28.4,29.55,SSW,213,15.0,24.2,78,0.00,OVC,BKN,0.08,0.0,WeatherDisplay:10.37,2013-02-12 02:50:00,
2013-02-11 21:55:00,34.5,29.0,29.55,WSW,245,13.8,24.2,80,0.00,OVC,BKN,0.08,0.0,WeatherDisplay:10.37,2013-02-12 02:55:00,
2013-02-11 22:00:00,34.5,28.7,29.55,SSW,202,13.4,19.6,79,0.00,OVC,BKN,0.08,0.0,WeatherDisplay:10.37,2013-02-12 03:00:00,
2013-02-11 22:05:00,34.5,28.7,29.55,WNW,287,13.6,18.4,79,0.00,-SN,BKN,0.08,0.0,WeatherDisplay:10.37,2013-02-12 03:05:00,
2013-02-11 22:10:00,34.5,28.4,29.55,SW,222,16.7,25.3,78,0.00,-SN,BKN,0.08,0.0,WeatherDisplay:10.37,2013-02-12 03:10:00,
2013-02-11 22:15:00,34.5,29.0,29.55,SW,227,14.4,23.0,80,0.00,-SN,BKN,0.08,0.0,WeatherDisplay:10.37,2013-02-12 03:15:00,
2013-02-11 22:20:00,34.5,29.0,29.55,SSW,211,12.4,23.0,80,0.00,-SN,BKN,0.08,0.0,WeatherDisplay:10.37,2013-02-12 03:20:00,
2013-02-11 22:25:00,34.3,28.5,29.55,SW,224,15.1,21.9,79,0.00,-SN,BKN,0.08,0.0,WeatherDisplay:10.37,2013-02-12 03:25:00,
2013-02-11 22:30:00,34.3,28.8,29.55,SW,221,14.4,19.1,80,0.00,-SN,BKN,0.08,0.0,WeatherDisplay:10.37,2013-02-12 03:30:00,
2013-02-11 22:35:00,34.5,29.0,29.55,WSW,257,11.2,17.3,80,0.00,-SN,BKN,0.08,0.0,WeatherDisplay:10.37,2013-02-12 03:35:00,
2013-02-11 22:40:00,34.3,28.8,29.55,WSW,249,14.8,18.4,80,0.00,-SN,BKN,0.08,0.0,WeatherDisplay:10.37,2013-02-12 03:40:00,
2013-02-11 22:45:00,34.3,28.8,29.55,West,265,13.5,28.8,80,0.00,-SN,BKN,0.08,0.0,WeatherDisplay:10.37,2013-02-12 03:45:00,
2013-02-11 22:50:00,33.6,29.6,29.56,SW,232,10.2,18.4,85,0.00,-SN,BKN,0.08,0.0,WeatherDisplay:10.37,2013-02-12 03:50:00,
2013-02-11 22:55:00,33.6,29.9,29.56,SW,218,15.2,19.6,86,0.00,-SN,BKN,0.08,0.0,WeatherDisplay:10.37,2013-02-12 03:55:00,
2013-02-11 23:00:00,33.4,30.0,29.56,WSW,245,11.8,17.8,87,0.00,-SN,BKN,0.08,0.0,WeatherDisplay:10.37,2013-02-12 04:00:00,
2013-02-11 23:05:00,33.1,29.9,29.57,WSW,238,12.6,16.7,88,0.00,-SN,BKN,0.08,0.0,WeatherDisplay:10.37,2013-02-12 04:05:00,
2013-02-11 23:10:00,33.1,30.5,29.57,SSW,212,10.2,13.8,90,0.00,-SN,BKN,0.08,0.0,WeatherDisplay:10.37,2013-02-12 04:10:00,
2013-02-11 23:15:00,32.9,30.3,29.57,SSW,206,12.0,17.3,90,0.00,-SN,BKN,0.08,0.0,WeatherDisplay:10.37,2013-02-12 04:15:00,
2013-02-11 23:20:00,32.7,30.7,29.57,SSW,210,11.7,17.3,92,0.00,-SN,BKN,0.08,0.0,WeatherDisplay:10.37,2013-02-12 04:20:00,
2013-02-11 23:25:00,32.4,30.8,29.57,South,172,12.8,17.3,94,0.00,-SN,BKN,0.08,0.0,WeatherDisplay:10.37,2013-02-12 04:25:00,
2013-02-11 23:30:00,32.2,31.4,29.57,SSW,210,12.1,18.4,97,0.00,-SN,BKN,0.08,0.0,WeatherDisplay:10.37,2013-02-12 04:30:00,
2013-02-11 23:35:00,32.0,31.5,29.57,SSW,210,11.9,19.6,98,0.00,-SN,BKN,0.08,0.0,WeatherDisplay:10.37,2013-02-12 04:35:00,
2013-02-11 23:40:00,32.2,31.7,29.57,South,172,11.5,18.4,98,0.00,-SN,BKN,0.08,0.0,WeatherDisplay:10.37,2013-02-12 04:40:00,
2013-02-11 23:45:00,32.2,31.7,29.57,SSW,208,9.9,13.6,98,0.00,-SN,BKN,0.08,0.0,WeatherDisplay:10.37,2013-02-12 04:45:00,
2013-02-11 23:50:00,32.2,31.7,29.57,SW,228,11.5,19.6,98,0.00,-SN,BKN,0.08,0.0,WeatherDisplay:10.37,2013-02-12 04:50:00,
2013-02-11 23:55:00,32.2,31.7,29.58,South,180,11.1,19.6,98,0.00,-SN,BKN,0.08,0.0,WeatherDisplay:10.37,2013-02-12 04:55:00,